Joshua Tree National Park, CA

9:47 PM PDT on September 01, 2014 (GMT -0700)
MesoWest Twentynine Palms JTNP CA US SGXWFO | Change Station
CLOSE
Current Station
Personal Weather Station
Location: Twentynine Palms, CA
Elevation: 1975 ft
Nearby Weather Stations

Elev 1975 ft 34.13 °N, 116.04 °W | Updated 52 minutes ago

Clear
Clear
94 °F
Feels Like 89 °F
N
0
Wind Variable Wind from North
Gusts 0.0 mph

Today
High -- | Low -- °F
--% Chance of Precip.
Yesterday
High -- | Low -- °F
Precip. -- in
6:17 AM 7:09 PM
Waxing Crescent, 47% visible
Pressure 29.74 in
Visibility 10.0 miles
Clouds Clear
Heat Index 89 °F
Dew Point 36 °F
Humidity 13%
Rainfall -999.00 in
Snow Depth Not available.
UV 0 out of 12
Pollen 8.30 out of 12
Ozone Moderate
Flu Activity Not available.
METAR KNXP 020356Z AUTO 23014KT 10SM CLR 32/01 A2986 RMK AO2 SLP071 T03220006

More Conditions Fewer Conditions

Pressure 29.74 in
Visibility 10.0 miles
Clouds Clear
Heat Index 89 °F
Dew Point 36 °F
Humidity 13%
Rainfall -999.00 in
Snow Depth Not available.
UV 0 out of 12
Pollen 8.30 out of 12
Ozone Moderate
Flu Activity Not available.
METAR KNXP 020356Z AUTO 23014KT 10SM CLR 32/01 A2986 RMK AO2 SLP071 T03220006

More Conditions Fewer Conditions

10-Day Weather Forecast

Almanac

Astronomy

Sep. 01, 2014 Rise Set
Actual Time 6:17 AM PDT 7:09 PM PDT
Civil Twilight 5:52 AM PDT 7:35 PM PDT
Nautical Twilight 5:21 AM PDT 8:05 PM PDT
Astronomical Twilight 4:50 AM PDT 8:36 PM PDT
Moon 12:49 PM PDT (9/1) 11:33 PM PDT (9/1)
Length of Visible Light 13h 43m
Length of Day
12h 52m
Tomorrow will be 2m 2s shorter.
Waxing Crescent, 47% of the Moon is Illuminated
Sep 2
Waxing Crescent
Sep 2
First Quarter
Sep 8
Full
Sep 15
Last Quarter
Sep 24
New

Yesterday's Extremes

State Highs State Lows

Community

WunderPhotos

Upload Photos

1,749,573 photos uploaded!

WunderBlogs® & News

Nearby

Air Quality

  Air Quality AQ Index Pollutant
Yesterday Moderate
OZONE
Yesterday Good
PM10
Current Moderate
OZONE
Tuesday Good
PM10
Tuesday Moderate
OZONE
Tuesday Good
CO
Tuesday Good
NO2

Snow Depth

Station Depth Elevation
Leavitt Lake 0 in 9400 ft
Leavitt Meadows 0 in 7200 ft
Summit Meadow 0 in 9122 ft
Monitor Pass 0 in 8350 ft
Blue Lakes 0 in 8000 ft

Earthquake Activity

City Distance Mag. Time & Date
Holtville, California 103 miles 2.5 5:43 PM PDT
2014-09-01
Holtville, California 105 miles 2.5 5:26 PM PDT
2014-09-01
Minimum magnitude displayed is 2.5.

Coastal Water Temperatures

Place Temperature
No Stations Reporting

Nearby Weather Stations